Time;durP1;ratioP1;P1;durP2;ratioP2;P2;SDS_P1;SDS_P2;PMS_P1;PMS_P2;Temp;Humidity;BMP_temperature;BMP_pressure;BME280_temperature;BME280_humidity;BME280_pressure;Samples;Min_cycle;Max_cycle;Signal;HPM_P1;HPM_P2
2020/12/10 00:02:21;;;;;;;3.20;2.90;;;21.80;54.30;;;;;;5054897;28;20211;-66
2020/12/10 00:04:46;;;;;;;4.63;2.67;;;21.80;54.30;;;;;;5036824;28;20190;-66
2020/12/10 00:07:12;;;;;;;3.00;2.50;;;21.80;54.30;;;;;;5054940;28;20167;-64
2020/12/10 00:09:37;;;;;;;3.00;2.67;;;21.80;54.30;;;;;;5054601;28;20504;-66
2020/12/10 00:12:04;;;;;;;2.80;2.10;;;21.80;54.30;;;;;;5054783;28;20230;-66
2020/12/10 00:14:29;;;;;;;4.27;2.50;;;21.80;54.30;;;;;;5054570;28;20563;-66
2020/12/10 00:16:55;;;;;;;2.40;2.20;;;21.70;54.20;;;;;;5054391;28;20567;-66
2020/12/10 00:19:20;;;;;;;3.70;2.40;;;21.80;54.30;;;;;;5054417;28;20168;-65
2020/12/10 00:21:46;;;;;;;3.23;2.67;;;21.70;54.20;;;;;;5054260;28;20305;-66
2020/12/10 00:24:12;;;;;;;2.73;2.47;;;21.70;54.30;;;;;;5054388;28;20172;-66
2020/12/10 00:26:38;;;;;;;3.90;3.50;;;21.70;54.30;;;;;;5054436;28;20696;-66
2020/12/10 00:29:03;;;;;;;3.00;2.50;;;21.70;54.30;;;;;;5054262;28;20171;-66
2020/12/10 00:31:29;;;;;;;3.30;2.53;;;21.70;54.30;;;;;;5054195;28;20171;-66
2020/12/10 00:33:54;;;;;;;2.47;2.03;;;21.70;54.30;;;;;;5036328;28;20317;-66
2020/12/10 00:36:20;;;;;;;2.93;2.67;;;21.70;54.30;;;;;;5054092;28;20178;-66
2020/12/10 00:38:46;;;;;;;3.30;2.50;;;21.70;54.40;;;;;;5054131;28;20179;-65
2020/12/10 00:41:14;;;;;;;2.73;2.37;;;21.70;54.40;;;;;;5053905;28;20261;-66
2020/12/10 00:43:39;;;;;;;3.23;2.40;;;21.70;54.40;;;;;;5053856;28;20186;-66
2020/12/10 00:46:06;;;;;;;4.00;2.60;;;21.70;54.40;;;;;;5054455;28;20409;-66
2020/12/10 00:48:35;;;;;;;2.93;2.57;;;21.70;54.40;;;;;;5053851;28;20183;-67
2020/12/10 00:51:01;;;;;;;2.77;2.57;;;21.70;54.40;;;;;;5036000;28;20417;-66
2020/12/10 00:53:28;;;;;;;3.77;2.53;;;21.60;54.40;;;;;;5053758;28;20513;-66
2020/12/10 00:55:57;;;;;;;3.03;2.33;;;21.60;54.40;;;;;;5053730;28;20429;-66
2020/12/10 00:58:23;;;;;;;3.40;2.73;;;21.60;54.40;;;;;;5053492;28;20796;-66
2020/12/10 01:00:49;;;;;;;2.90;2.30;;;21.60;54.40;;;;;;5053708;28;20385;-66
2020/12/10 01:03:15;;;;;;;2.93;2.33;;;21.60;54.40;;;;;;5053520;28;20559;-65
2020/12/10 01:05:41;;;;;;;2.53;2.27;;;21.60;54.40;;;;;;5053617;28;20742;-66
2020/12/10 01:08:06;;;;;;;3.57;2.63;;;21.60;54.40;;;;;;5053614;28;20171;-66
2020/12/10 01:10:32;;;;;;;2.63;2.20;;;21.60;54.40;;;;;;5053482;28;20206;-66
2020/12/10 01:12:58;;;;;;;3.10;2.60;;;21.60;54.40;;;;;;5035601;28;20712;-66
2020/12/10 01:15:23;;;;;;;2.70;2.40;;;21.60;54.50;;;;;;5053427;28;20578;-66
2020/12/10 01:17:49;;;;;;;2.53;1.93;;;21.60;54.50;;;;;;5053333;28;20197;-66
2020/12/10 01:20:14;;;;;;;2.90;2.60;;;21.60;54.50;;;;;;5053338;28;20257;-66
2020/12/10 01:22:41;;;;;;;2.50;2.30;;;21.60;54.50;;;;;;5053268;28;20207;-66
2020/12/10 01:25:07;;;;;;;3.60;2.67;;;21.60;54.50;;;;;;5053298;28;20254;-66
2020/12/10 01:27:32;;;;;;;4.10;2.63;;;21.60;54.50;;;;;;5053485;28;20504;-66
2020/12/10 01:29:58;;;;;;;3.03;2.50;;;21.60;54.50;;;;;;5053248;28;20171;-65
2020/12/10 01:32:25;;;;;;;3.30;2.73;;;21.60;54.50;;;;;;5053436;28;20619;-66
2020/12/10 01:34:52;;;;;;;2.53;2.23;;;21.60;54.50;;;;;;5053231;28;20711;-66
2020/12/10 01:37:20;;;;;;;2.53;2.33;;;21.60;54.50;;;;;;5053308;28;20420;-66
2020/12/10 01:39:46;;;;;;;3.27;2.30;;;21.60;54.40;;;;;;5053035;28;20459;-66
2020/12/10 01:42:12;;;;;;;2.80;2.30;;;21.60;54.40;;;;;;5052950;28;20460;-65
2020/12/10 01:44:37;;;;;;;2.80;2.43;;;21.60;54.40;;;;;;5053054;28;20595;-66
2020/12/10 01:47:05;;;;;;;2.70;2.30;;;21.60;54.40;;;;;;5052983;28;20174;-66
2020/12/10 01:49:34;;;;;;;2.60;2.40;;;21.60;54.50;;;;;;5053024;28;20293;-65
2020/12/10 01:52:00;;;;;;;3.07;2.50;;;21.60;54.40;;;;;;5052916;28;20429;-66
2020/12/10 01:54:26;;;;;;;2.80;2.60;;;21.60;54.40;;;;;;5053200;28;20432;-65
2020/12/10 01:56:55;;;;;;;2.83;2.57;;;21.60;54.40;;;;;;5053183;28;20430;-66
2020/12/10 01:59:22;;;;;;;2.37;2.17;;;21.60;54.50;;;;;;5052837;28;20206;-65
2020/12/10 02:01:49;;;;;;;2.70;2.50;;;21.60;54.50;;;;;;5052678;28;20555;-66
2020/12/10 02:04:36;;;;;;;3.30;2.60;;;21.60;54.50;;;;;;5053105;28;20460;-66
2020/12/10 02:07:03;;;;;;;3.10;2.10;;;21.60;54.40;;;;;;5052887;28;20394;-65
2020/12/10 02:09:29;;;;;;;3.50;2.10;;;21.60;54.50;;;;;;5056385;28;20428;-65
2020/12/10 02:11:55;;;;;;;2.70;2.27;;;21.60;54.50;;;;;;5056753;28;20437;-65
2020/12/10 02:14:22;;;;;;;2.60;2.20;;;21.60;54.50;;;;;;5056828;28;20420;-65
2020/12/10 02:16:54;;;;;;;2.53;2.20;;;21.60;54.50;;;;;;5056704;28;20186;-66
2020/12/10 02:19:20;;;;;;;3.30;2.53;;;21.60;54.50;;;;;;5056693;28;20432;-66
2020/12/10 02:21:45;;;;;;;2.80;2.37;;;21.60;54.60;;;;;;5056829;28;20541;-66
2020/12/10 02:24:14;;;;;;;4.17;2.23;;;21.60;54.50;;;;;;5056630;28;20171;-66
2020/12/10 02:26:40;;;;;;;2.77;2.50;;;21.60;54.50;;;;;;5056527;28;20179;-66
2020/12/10 02:29:05;;;;;;;2.50;1.93;;;21.50;54.50;;;;;;5056531;28;20508;-66
2020/12/10 02:31:32;;;;;;;2.33;2.13;;;21.50;54.50;;;;;;5056643;28;20277;-66
2020/12/10 02:33:59;;;;;;;3.60;2.57;;;21.50;54.50;;;;;;5038598;28;20183;-66
2020/12/10 02:36:25;;;;;;;2.90;2.30;;;21.50;54.50;;;;;;5056383;28;20409;-65
2020/12/10 02:38:51;;;;;;;2.27;1.80;;;21.50;54.60;;;;;;5056369;28;20938;-66
2020/12/10 02:41:17;;;;;;;2.20;1.80;;;21.50;54.60;;;;;;5054989;28;20436;-67
2020/12/10 02:43:42;;;;;;;2.70;2.03;;;21.50;54.60;;;;;;5054383;28;20224;-67
2020/12/10 02:46:08;;;;;;;2.40;2.20;;;21.50;54.60;;;;;;5055789;28;20631;-66
2020/12/10 02:48:34;;;;;;;3.33;2.70;;;21.50;54.60;;;;;;5055280;28;20437;-67
2020/12/10 02:51:01;;;;;;;2.77;2.27;;;21.50;54.60;;;;;;5056143;28;20151;-65
2020/12/10 02:53:30;;;;;;;2.60;2.27;;;21.50;54.60;;;;;;5056268;28;20207;-66
2020/12/10 02:55:56;;;;;;;2.33;2.13;;;21.50;54.60;;;;;;5055950;28;20503;-66
2020/12/10 02:58:22;;;;;;;3.10;2.43;;;21.50;54.60;;;;;;5056036;28;20508;-66
2020/12/10 03:00:48;;;;;;;2.80;2.50;;;21.50;54.60;;;;;;5055958;28;20766;-66
2020/12/10 03:03:15;;;;;;;2.83;2.30;;;21.50;54.60;;;;;;5055790;28;20461;-66
2020/12/10 03:05:40;;;;;;;3.23;2.93;;;21.50;54.60;;;;;;5055899;28;20438;-65
2020/12/10 03:08:06;;;;;;;2.60;2.40;;;21.50;54.60;;;;;;5055938;28;20510;-66
2020/12/10 03:10:32;;;;;;;2.30;2.10;;;21.50;54.50;;;;;;5055795;28;20174;-67
2020/12/10 03:12:58;;;;;;;2.37;2.00;;;21.50;54.50;;;;;;5037838;28;20685;-66
2020/12/10 03:15:23;;;;;;;2.40;2.17;;;21.50;54.60;;;;;;5055784;28;20228;-66
2020/12/10 03:17:49;;;;;;;3.13;1.80;;;21.50;54.50;;;;;;5055625;28;20193;-66
2020/12/10 03:20:16;;;;;;;2.33;2.13;;;21.50;54.50;;;;;;5055527;28;20807;-66
2020/12/10 03:22:42;;;;;;;2.40;2.20;;;21.50;54.50;;;;;;5055414;28;20511;-66
2020/12/10 03:25:08;;;;;;;2.10;1.90;;;21.50;54.60;;;;;;5055522;28;20413;-66
2020/12/10 03:27:33;;;;;;;3.27;2.40;;;21.50;54.60;;;;;;5055499;28;20171;-65
2020/12/10 03:29:59;;;;;;;3.00;2.00;;;21.50;54.60;;;;;;5037547;28;20210;-66
2020/12/10 03:32:25;;;;;;;4.43;2.30;;;21.50;55.10;;;;;;5055263;28;20194;-66
2020/12/10 03:34:50;;;;;;;2.40;2.07;;;21.50;54.60;;;;;;5055601;28;20177;-66
2020/12/10 03:37:16;;;;;;;2.50;2.30;;;21.50;54.60;;;;;;5055492;28;20583;-66
2020/12/10 03:39:42;;;;;;;2.47;2.10;;;21.50;54.60;;;;;;5055238;28;20654;-65
2020/12/10 03:42:07;;;;;;;3.47;2.47;;;21.50;54.60;;;;;;5055115;28;20202;-66
2020/12/10 03:44:33;;;;;;;2.70;2.03;;;21.50;54.60;;;;;;5055156;28;20209;-66
2020/12/10 03:46:59;;;;;;;3.10;2.10;;;21.50;54.60;;;;;;5055080;28;20615;-66
2020/12/10 03:49:24;;;;;;;2.30;1.97;;;21.50;54.60;;;;;;5055057;28;20171;-66
2020/12/10 03:51:50;;;;;;;2.37;2.13;;;21.50;54.60;;;;;;5054915;28;20654;-66
2020/12/10 03:54:16;;;;;;;2.53;2.20;;;21.50;54.60;;;;;;5055260;28;20202;-66
2020/12/10 03:56:42;;;;;;;2.60;2.13;;;21.50;54.60;;;;;;5037015;28;20669;-65
2020/12/10 03:59:08;;;;;;;2.57;1.60;;;21.40;54.60;;;;;;5054844;28;20171;-66
2020/12/10 04:01:33;;;;;;;2.27;1.80;;;21.50;54.60;;;;;;5054713;28;20377;-66
2020/12/10 04:03:59;;;;;;;2.77;1.90;;;21.50;54.60;;;;;;5054816;28;20175;-66
2020/12/10 04:06:25;;;;;;;2.23;2.03;;;21.50;54.60;;;;;;5054661;28;20174;-66
2020/12/10 04:08:51;;;;;;;2.47;1.93;;;21.40;54.60;;;;;;5054664;28;20202;-66
2020/12/10 04:11:16;;;;;;;3.57;2.10;;;21.50;54.60;;;;;;5055358;28;20203;-67
2020/12/10 04:13:42;;;;;;;2.23;2.03;;;21.40;54.60;;;;;;5054911;28;20170;-66
2020/12/10 04:16:08;;;;;;;2.07;1.87;;;21.50;54.70;;;;;;5054402;28;20248;-66
2020/12/10 04:18:41;;;;;;;1.97;1.77;;;21.50;54.60;;;;;;5054504;28;20155;-67
2020/12/10 04:21:08;;;;;;;3.20;2.40;;;21.50;54.60;;;;;;5054551;28;20160;-67
2020/12/10 04:23:34;;;;;;;1.93;1.77;;;21.50;54.60;;;;;;5036334;28;20544;-66
2020/12/10 04:26:00;;;;;;;3.20;2.50;;;21.50;54.60;;;;;;5055142;28;20417;-66
2020/12/10 04:28:26;;;;;;;2.43;1.93;;;21.50;54.60;;;;;;5054540;28;20417;-66
2020/12/10 04:30:52;;;;;;;2.47;2.03;;;21.40;54.50;;;;;;5053739;28;20179;-67
2020/12/10 04:33:17;;;;;;;2.40;2.00;;;21.50;54.60;;;;;;5054150;28;20198;-67
2020/12/10 04:35:43;;;;;;;2.30;1.80;;;21.50;54.60;;;;;;5054161;28;20182;-66
2020/12/10 04:38:09;;;;;;;2.50;1.90;;;21.50;54.60;;;;;;5054115;28;20182;-66
2020/12/10 04:40:35;;;;;;;3.30;1.70;;;21.50;54.60;;;;;;5036194;28;20413;-66
2020/12/10 04:43:03;;;;;;;2.40;1.73;;;21.40;54.50;;;;;;5053896;28;20472;-65
2020/12/10 04:45:28;;;;;;;2.33;2.10;;;21.50;54.60;;;;;;5036100;28;20421;-67
2020/12/10 04:47:55;;;;;;;2.80;2.00;;;21.50;54.60;;;;;;5054406;28;20475;-67
2020/12/10 04:50:23;;;;;;;2.03;1.83;;;21.50;54.60;;;;;;5053875;28;20357;-67
2020/12/10 04:52:50;;;;;;;1.67;1.57;;;21.50;54.60;;;;;;5053768;28;20440;-67
2020/12/10 04:55:15;;;;;;;2.60;2.20;;;21.50;54.60;;;;;;5054568;28;20425;-67
2020/12/10 04:57:43;;;;;;;2.43;2.07;;;21.40;54.60;;;;;;5053688;28;20409;-67
2020/12/10 05:00:09;;;;;;;2.47;1.80;;;21.40;54.60;;;;;;5053666;28;20405;-67
2020/12/10 05:02:35;;;;;;;2.20;2.00;;;21.40;54.60;;;;;;5053587;28;20523;-67
2020/12/10 05:05:00;;;;;;;2.00;1.80;;;21.40;54.60;;;;;;5035786;28;20418;-67
2020/12/10 05:07:38;;;;;;;2.70;1.90;;;21.40;54.70;;;;;;5053602;28;20194;-66
2020/12/10 05:10:04;;;;;;;2.67;1.70;;;21.40;54.70;;;;;;5053541;28;20645;-65
2020/12/10 05:12:29;;;;;;;2.40;1.93;;;21.40;54.80;;;;;;5035576;28;20451;-65
2020/12/10 05:14:55;;;;;;;2.00;1.80;;;21.30;54.70;;;;;;5053531;28;20175;-67
2020/12/10 05:17:21;;;;;;;2.10;1.83;;;21.40;54.80;;;;;;5053407;28;20591;-67
2020/12/10 05:19:57;;;;;;;2.13;1.90;;;21.30;54.70;;;;;;5053417;28;20626;-67
2020/12/10 05:22:23;;;;;;;2.20;1.97;;;21.30;54.70;;;;;;5053223;28;20230;-66
2020/12/10 05:25:03;;;;;;;2.27;1.80;;;21.30;54.80;;;;;;5053282;28;20915;-67
2020/12/10 05:27:29;;;;;;;1.70;1.50;;;21.30;54.70;;;;;;5053611;28;20752;-66
2020/12/10 05:29:55;;;;;;;2.20;2.00;;;21.30;54.80;;;;;;5053208;28;20448;-67
2020/12/10 05:32:41;;;;;;;2.43;2.03;;;21.30;54.80;;;;;;5053125;28;20433;-67
2020/12/10 05:35:21;;;;;;;1.73;1.63;;;21.30;54.80;;;;;;5053327;28;20240;-67
2020/12/10 05:37:48;;;;;;;2.00;1.80;;;21.30;54.90;;;;;;5053125;28;20912;-67
2020/12/10 05:40:14;;;;;;;2.20;1.67;;;21.30;54.90;;;;;;5053041;28;20405;-67
2020/12/10 05:42:42;;;;;;;2.37;2.00;;;21.30;54.90;;;;;;5034137;28;20934;-67
2020/12/10 05:45:15;;;;;;;3.17;2.10;;;21.30;54.80;;;;;;5053058;28;20401;-66
2020/12/10 05:47:47;;;;;;;3.23;2.83;;;21.30;54.80;;;;;;5052988;28;20414;-66
2020/12/10 05:50:14;;;;;;;2.37;1.90;;;21.30;54.70;;;;;;5053003;28;20881;-66
2020/12/10 05:52:59;;;;;;;3.50;2.87;;;21.30;54.80;;;;;;5052869;28;20424;-67
2020/12/10 05:55:25;;;;;;;2.60;2.20;;;21.30;54.80;;;;;;5053223;28;20400;-66
2020/12/10 05:57:51;;;;;;;3.10;2.80;;;21.30;54.80;;;;;;5052825;28;20413;-65
2020/12/10 06:00:16;;;;;;;4.20;2.37;;;21.30;54.80;;;;;;5052830;28;20187;-67
2020/12/10 06:02:42;;;;;;;3.53;3.23;;;21.30;54.70;;;;;;5052662;28;20461;-67
2020/12/10 06:05:09;;;;;;;3.20;2.90;;;21.30;54.70;;;;;;5053113;28;20171;-67
2020/12/10 06:07:35;;;;;;;2.60;2.40;;;21.30;54.70;;;;;;5053638;28;20194;-67
2020/12/10 06:10:01;;;;;;;2.40;2.20;;;21.30;54.70;;;;;;5052830;28;20401;-68
2020/12/10 06:12:27;;;;;;;3.20;2.83;;;21.30;54.60;;;;;;5052638;28;20293;-68
2020/12/10 06:14:58;;;;;;;4.83;3.00;;;21.40;54.70;;;;;;5052425;28;20496;-66
2020/12/10 06:17:25;;;;;;;3.00;2.47;;;21.40;54.60;;;;;;5052664;28;20611;-67
2020/12/10 06:19:51;;;;;;;3.70;2.67;;;21.30;54.50;;;;;;5052954;28;20462;-66
2020/12/10 06:22:36;;;;;;;3.23;2.73;;;21.40;54.60;;;;;;5051636;28;20499;-68
2020/12/10 06:25:28;;;;;;;3.00;2.67;;;21.40;54.60;;;;;;5034772;28;20186;-66
2020/12/10 06:28:17;;;;;;;3.20;2.63;;;21.40;54.60;;;;;;5052842;28;20459;-65
2020/12/10 06:31:00;;;;;;;2.67;2.47;;;21.40;54.60;;;;;;5052709;28;20443;-67
2020/12/10 06:33:40;;;;;;;2.57;2.30;;;21.30;54.60;;;;;;5052535;28;20431;-67
2020/12/10 06:36:18;;;;;;;3.20;2.60;;;21.40;54.60;;;;;;5052709;28;20417;-67
2020/12/10 06:38:44;;;;;;;3.90;2.60;;;21.40;54.60;;;;;;5052626;28;20492;-66
2020/12/10 06:41:10;;;;;;;6.17;3.50;;;21.30;54.60;;;;;;5052602;28;20480;-68
2020/12/10 06:43:39;;;;;;;4.57;3.13;;;21.30;54.50;;;;;;5052326;28;20456;-67
2020/12/10 06:46:06;;;;;;;4.47;2.60;;;21.30;54.50;;;;;;5052519;28;20586;-67
2020/12/10 06:48:43;;;;;;;2.70;2.50;;;21.40;54.60;;;;;;5052641;28;20410;-67
2020/12/10 06:51:17;;;;;;;3.57;2.77;;;21.40;54.50;;;;;;5052338;28;20409;-67
2020/12/10 06:54:07;;;;;;;2.97;2.10;;;21.40;54.50;;;;;;5053134;28;20479;-67
2020/12/10 06:56:56;;;;;;;3.53;2.47;;;21.40;54.50;;;;;;5044321;28;20494;-67
2020/12/10 06:59:41;;;;;;;3.57;2.57;;;21.40;54.50;;;;;;5056114;28;20752;-66
2020/12/10 07:02:17;;;;;;;3.70;3.03;;;21.40;54.50;;;;;;5055815;28;20982;-66
2020/12/10 07:04:50;;;;;;;3.33;2.90;;;21.40;54.50;;;;;;5056197;28;20841;-67
2020/12/10 07:07:17;;;;;;;3.73;2.87;;;21.40;54.50;;;;;;5056252;28;20428;-67
2020/12/10 07:09:53;;;;;;;3.90;3.17;;;21.40;54.40;;;;;;5055824;28;20501;-67
2020/12/10 07:12:32;;;;;;;3.70;3.00;;;21.40;54.40;;;;;;5055751;28;20425;-67
2020/12/10 07:15:12;;;;;;;3.60;3.00;;;21.40;54.40;;;;;;5056038;28;20389;-67
2020/12/10 07:17:38;;;;;;;3.37;2.83;;;21.50;54.40;;;;;;5055554;28;20428;-67
2020/12/10 07:20:03;;;;;;;3.10;2.57;;;21.50;54.40;;;;;;5056226;28;20768;-65
2020/12/10 07:22:29;;;;;;;4.20;3.20;;;21.50;54.40;;;;;;5055645;28;20242;-67
2020/12/10 07:24:55;;;;;;;3.57;3.00;;;21.50;54.40;;;;;;5055358;28;20168;-67
2020/12/10 07:27:20;;;;;;;3.27;2.80;;;21.50;54.30;;;;;;5055539;28;20693;-66
2020/12/10 07:29:50;;;;;;;5.60;3.07;;;21.50;54.30;;;;;;5055830;28;20185;-67
2020/12/10 07:32:16;;;;;;;4.30;3.50;;;21.50;54.30;;;;;;5055464;28;20186;-67
2020/12/10 07:34:43;;;;;;;6.03;3.40;;;21.50;54.30;;;;;;5055440;28;20467;-66
2020/12/10 07:37:11;;;;;;;3.57;3.00;;;21.50;54.30;;;;;;5055339;28;20242;-67
2020/12/10 07:39:37;;;;;;;4.40;3.00;;;21.50;54.30;;;;;;5055266;28;20924;-68
2020/12/10 07:42:02;;;;;;;3.50;3.20;;;21.50;54.30;;;;;;5055223;28;20511;-66
2020/12/10 07:44:30;;;;;;;4.47;3.20;;;21.50;54.30;;;;;;5055380;28;20167;-67
2020/12/10 07:46:56;;;;;;;4.47;3.30;;;21.50;54.30;;;;;;5055076;28;20215;-67
2020/12/10 07:49:25;;;;;;;5.27;3.90;;;21.50;54.30;;;;;;5055074;28;20418;-67
2020/12/10 07:52:05;;;;;;;4.13;3.40;;;21.50;54.30;;;;;;5055563;28;20432;-67
2020/12/10 07:54:43;;;;;;;3.40;3.00;;;21.50;54.30;;;;;;5055075;28;20397;-67
2020/12/10 07:57:27;;;;;;;5.37;3.77;;;21.50;54.40;;;;;;5037851;28;20414;-67
2020/12/10 08:00:17;;;;;;;4.57;3.30;;;21.50;54.40;;;;;;5037048;28;20444;-66
2020/12/10 08:02:45;;;;;;;4.47;2.87;;;21.50;54.40;;;;;;5054103;28;20552;-67
2020/12/10 08:05:16;;;;;;;3.87;3.50;;;21.40;54.40;;;;;;5054051;28;20410;-67
2020/12/10 08:07:49;;;;;;;4.37;3.03;;;21.50;54.40;;;;;;5054573;28;20876;-67
2020/12/10 08:10:31;;;;;;;5.30;3.10;;;21.50;54.40;;;;;;5054705;28;20409;-67
2020/12/10 08:13:19;;;;;;;5.27;3.00;;;21.50;54.40;;;;;;5054545;28;20429;-66
2020/12/10 08:15:49;;;;;;;3.70;3.03;;;21.50;54.40;;;;;;5054553;28;20414;-67
2020/12/10 08:18:17;;;;;;;4.70;3.53;;;21.50;54.40;;;;;;5054412;28;20437;-67
2020/12/10 08:20:51;;;;;;;4.73;3.83;;;21.50;54.40;;;;;;5054410;28;20463;-67
2020/12/10 08:23:19;;;;;;;5.50;4.07;;;21.50;54.40;;;;;;5054333;28;20456;-67
2020/12/10 08:26:08;;;;;;;4.90;3.17;;;21.50;54.40;;;;;;5054391;28;20410;-67
2020/12/10 08:28:33;;;;;;;6.10;3.90;;;21.50;54.70;;;;;;5054427;28;20409;-67
2020/12/10 08:30:59;;;;;;;4.10;3.50;;;21.50;54.30;;;;;;5054306;28;20405;-67
2020/12/10 08:33:37;;;;;;;4.00;3.00;;;21.50;54.40;;;;;;5054200;28;20214;-67
2020/12/10 08:36:04;;;;;;;7.20;3.63;;;21.50;54.30;;;;;;5054013;28;20205;-67
2020/12/10 08:38:30;;;;;;;3.90;3.03;;;21.50;54.30;;;;;;5054074;28;20916;-66
2020/12/10 08:40:57;;;;;;;4.10;2.87;;;21.50;54.30;;;;;;5054155;28;20401;-67
2020/12/10 08:43:24;;;;;;;4.97;3.50;;;21.50;54.20;;;;;;5053934;28;20201;-67
2020/12/10 08:45:50;;;;;;;4.93;3.30;;;21.50;54.20;;;;;;5054539;28;20413;-67
2020/12/10 08:48:29;;;;;;;4.03;3.30;;;21.50;54.20;;;;;;5036092;28;20924;-67
2020/12/10 08:50:58;;;;;;;6.90;3.53;;;21.50;54.20;;;;;;5054228;28;20394;-66
2020/12/10 08:53:25;;;;;;;4.10;3.23;;;21.50;54.20;;;;;;5053831;28;20947;-67
2020/12/10 08:55:56;;;;;;;6.33;3.90;;;21.50;54.20;;;;;;5053814;28;20487;-67
2020/12/10 08:58:23;;;;;;;4.97;3.40;;;21.50;54.20;;;;;;5053719;28;20409;-67
2020/12/10 09:00:49;;;;;;;6.27;3.97;;;21.50;54.20;;;;;;5054017;28;20874;-66
2020/12/10 09:03:15;;;;;;;4.27;3.10;;;21.50;54.20;;;;;;5053581;28;20453;-67
2020/12/10 09:05:41;;;;;;;4.40;2.83;;;21.50;54.20;;;;;;5053661;28;20494;-67
2020/12/10 09:08:07;;;;;;;5.03;3.37;;;21.50;54.20;;;;;;5035739;28;20397;-67
2020/12/10 09:10:33;;;;;;;5.43;3.80;;;21.50;54.20;;;;;;5053478;28;20401;-67
2020/12/10 09:13:00;;;;;;;3.93;3.00;;;21.50;54.20;;;;;;5053533;28;20429;-67
2020/12/10 09:15:26;;;;;;;4.80;3.30;;;21.50;54.20;;;;;;5053766;28;20926;-67
2020/12/10 09:17:52;;;;;;;4.00;3.60;;;21.50;54.20;;;;;;5052500;28;20421;-67
2020/12/10 09:20:18;;;;;;;4.30;3.37;;;21.50;54.20;;;;;;5052614;28;20473;-67
2020/12/10 09:22:44;;;;;;;5.30;3.50;;;21.50;54.20;;;;;;5052478;28;20716;-67
2020/12/10 09:25:10;;;;;;;4.43;3.10;;;21.50;54.20;;;;;;5052535;28;20413;-67
2020/12/10 09:27:36;;;;;;;4.80;3.30;;;21.50;54.20;;;;;;5052517;28;20167;-67
2020/12/10 09:30:04;;;;;;;4.37;3.90;;;21.50;54.80;;;;;;5052699;28;20803;-67
2020/12/10 09:32:34;;;;;;;4.90;3.57;;;21.50;54.30;;;;;;5052358;28;20626;-67
2020/12/10 09:35:00;;;;;;;4.70;3.80;;;21.50;54.20;;;;;;5052376;28;20417;-67
2020/12/10 09:37:26;;;;;;;4.43;3.60;;;21.60;54.20;;;;;;5052554;28;20406;-67
2020/12/10 09:39:51;;;;;;;6.60;3.17;;;21.60;54.20;;;;;;5034473;28;20785;-67
2020/12/10 09:42:17;;;;;;;5.20;3.63;;;21.60;54.20;;;;;;5052138;28;20195;-67
2020/12/10 09:44:43;;;;;;;4.13;3.33;;;21.60;54.20;;;;;;5052164;28;20167;-67
2020/12/10 09:47:10;;;;;;;4.50;3.60;;;21.60;54.20;;;;;;5052233;28;20401;-67
2020/12/10 09:49:37;;;;;;;4.90;3.47;;;21.60;54.10;;;;;;5052446;28;20171;-67
2020/12/10 09:52:03;;;;;;;5.80;3.60;;;21.70;54.20;;;;;;5052047;28;20429;-67
2020/12/10 09:54:48;;;;;;;5.03;3.10;;;21.70;54.20;;;;;;5052077;28;20414;-67
2020/12/10 09:59:46;;;;;;;6.40;3.17;;;21.80;54.30;;;;;;5052396;28;20390;-67
2020/12/10 10:02:13;;;;;;;4.10;2.77;;;21.80;54.20;;;;;;5051916;28;20560;-67
2020/12/10 10:04:39;;;;;;;4.57;3.63;;;21.80;54.20;;;;;;5052047;28;20167;-67
2020/12/10 10:07:06;;;;;;;4.70;2.80;;;21.90;54.30;;;;;;5051940;28;20748;-67
2020/12/10 10:09:33;;;;;;;4.63;3.37;;;21.90;54.20;;;;;;5051985;28;20163;-67
2020/12/10 10:11:58;;;;;;;4.90;3.70;;;21.90;54.20;;;;;;5051825;28;20912;-67
2020/12/10 10:14:24;;;;;;;4.77;3.10;;;21.90;54.10;;;;;;5051860;28;20467;-67
2020/12/10 10:16:49;;;;;;;7.50;3.90;;;21.90;54.10;;;;;;5028572;28;617325;-67
2020/12/10 10:19:15;;;;;;;4.23;2.77;;;21.90;54.10;;;;;;5052727;28;20634;-67
2020/12/10 10:21:41;;;;;;;4.90;3.03;;;21.90;54.00;;;;;;5052500;28;20202;-66
2020/12/10 10:24:09;;;;;;;5.30;3.00;;;21.90;54.00;;;;;;5052898;28;20186;-67
2020/12/10 10:26:35;;;;;;;5.93;3.60;;;21.80;53.90;;;;;;5052853;28;20321;-66
2020/12/10 10:29:04;;;;;;;4.77;3.47;;;21.90;54.00;;;;;;5053615;28;20419;-67
2020/12/10 10:31:30;;;;;;;5.73;3.30;;;21.80;53.90;;;;;;5038560;28;20437;-67
2020/12/10 10:33:55;;;;;;;4.87;3.63;;;21.90;54.10;;;;;;5056406;28;20460;-67
2020/12/10 10:36:22;;;;;;;6.50;4.03;;;21.90;54.10;;;;;;5056655;28;20697;-67
2020/12/10 10:38:48;;;;;;;6.47;3.87;;;21.90;54.00;;;;;;5056327;28;20221;-67
2020/12/10 10:41:14;;;;;;;5.30;3.93;;;21.80;54.00;;;;;;5056378;28;20437;-65
2020/12/10 10:43:40;;;;;;;4.60;3.60;;;21.80;54.00;;;;;;5056177;28;20885;-67
2020/12/10 10:46:05;;;;;;;4.37;3.10;;;21.80;54.00;;;;;;5056573;28;20579;-67
2020/12/10 10:48:31;;;;;;;5.47;3.50;;;21.90;54.00;;;;;;5056569;28;20443;-67
2020/12/10 10:50:57;;;;;;;3.33;2.90;;;21.80;53.90;;;;;;5056343;28;20221;-67
2020/12/10 10:53:23;;;;;;;5.20;3.47;;;21.90;54.00;;;;;;5056159;28;20269;-66
2020/12/10 10:55:50;;;;;;;4.80;3.47;;;21.90;53.90;;;;;;5056148;28;20412;-66
2020/12/10 10:58:16;;;;;;;3.57;2.83;;;21.90;53.90;;;;;;5056048;28;20166;-65
2020/12/10 11:00:44;;;;;;;5.77;4.00;;;22.00;54.00;;;;;;5056127;28;20414;-67
2020/12/10 11:03:10;;;;;;;4.80;3.40;;;22.00;53.90;;;;;;5055925;28;20468;-66
2020/12/10 11:05:35;;;;;;;4.80;3.40;;;22.00;53.90;;;;;;5056002;28;20489;-66
2020/12/10 11:08:01;;;;;;;4.80;3.40;;;22.00;53.90;;;;;;5056034;28;20183;-67
2020/12/10 11:10:26;;;;;;;6.87;3.70;;;22.10;54.00;;;;;;5055875;28;20542;-67
2020/12/10 11:12:52;;;;;;;5.23;3.30;;;22.10;54.00;;;;;;5056032;28;20194;-67
2020/12/10 11:15:18;;;;;;;4.13;2.93;;;22.10;54.00;;;;;;5056168;28;20628;-67
2020/12/10 11:17:43;;;;;;;4.20;3.30;;;22.10;54.00;;;;;;5037729;28;20198;-66
2020/12/10 11:20:09;;;;;;;6.40;4.20;;;22.10;53.90;;;;;;5055645;28;20630;-71
2020/12/10 11:22:38;;;;;;;5.17;3.63;;;22.10;53.90;;;;;;5055771;28;20203;-69
2020/12/10 11:25:05;;;;;;;5.80;3.73;;;22.10;53.80;;;;;;5055845;28;20204;-69
2020/12/10 11:27:30;;;;;;;4.83;4.17;;;22.20;53.90;;;;;;5055510;28;20441;-71
2020/12/10 11:29:57;;;;;;;4.43;3.00;;;22.10;53.80;;;;;;5055636;28;20452;-67
2020/12/10 11:32:23;;;;;;;4.37;3.50;;;22.20;53.80;;;;;;5055328;28;20467;-67
2020/12/10 11:34:49;;;;;;;6.53;3.10;;;22.10;53.80;;;;;;5055542;28;20398;-70
2020/12/10 11:37:14;;;;;;;5.37;3.43;;;22.10;53.70;;;;;;5055316;28;20185;-67
2020/12/10 11:39:40;;;;;;;6.50;3.50;;;22.20;53.80;;;;;;5055395;28;20546;-68
2020/12/10 11:42:06;;;;;;;6.53;4.63;;;22.20;53.80;;;;;;5054993;28;20211;-66
2020/12/10 11:44:32;;;;;;;4.43;4.03;;;22.20;53.80;;;;;;5055079;28;20171;-65
2020/12/10 11:46:57;;;;;;;5.60;3.80;;;22.20;53.70;;;;;;5055336;28;20198;-67
2020/12/10 11:49:23;;;;;;;4.60;3.53;;;22.20;53.70;;;;;;5037928;28;20171;-67
2020/12/10 11:51:49;;;;;;;5.00;3.90;;;22.20;53.70;;;;;;5055198;28;20198;-67
2020/12/10 11:54:14;;;;;;;4.23;3.83;;;22.20;53.70;;;;;;5054965;28;20159;-66
2020/12/10 11:56:40;;;;;;;6.43;4.23;;;22.20;53.70;;;;;;5054907;28;20171;-68
2020/12/10 11:59:06;;;;;;;4.70;4.30;;;22.20;53.70;;;;;;5054877;28;20253;-68
2020/12/10 12:01:31;;;;;;;6.53;4.50;;;22.20;53.70;;;;;;5054691;28;20245;-66
2020/12/10 12:03:58;;;;;;;7.60;4.97;;;22.20;53.70;;;;;;5055137;28;20265;-66
2020/12/10 12:06:25;;;;;;;5.00;4.50;;;22.20;53.70;;;;;;5055013;28;20250;-67
2020/12/10 12:08:51;;;;;;;4.93;4.50;;;22.20;53.70;;;;;;5054680;28;20416;-67
2020/12/10 12:11:23;;;;;;;5.97;5.37;;;22.20;53.70;;;;;;5054879;28;20402;-65
2020/12/10 12:13:48;;;;;;;5.20;4.70;;;22.20;53.70;;;;;;5054724;28;20159;-68
2020/12/10 12:16:14;;;;;;;4.87;4.47;;;22.20;53.70;;;;;;5054561;28;20420;-66
2020/12/10 12:18:40;;;;;;;5.70;5.17;;;22.20;53.70;;;;;;5054516;28;20242;-66
2020/12/10 12:21:05;;;;;;;7.80;5.50;;;22.20;53.70;;;;;;5054509;28;20175;-66
2020/12/10 12:23:31;;;;;;;9.77;8.73;;;22.20;53.70;;;;;;5054373;28;20202;-67
2020/12/10 12:25:56;;;;;;;9.23;8.20;;;22.20;53.70;;;;;;5054604;28;20178;-67
2020/12/10 12:28:22;;;;;;;14.40;11.80;;;22.20;53.70;;;;;;5054403;28;20159;-68
2020/12/10 12:30:48;;;;;;;14.00;12.70;;;22.20;53.70;;;;;;5054506;28;20175;-67
2020/12/10 12:33:13;;;;;;;19.93;17.50;;;22.20;53.70;;;;;;5054209;28;20271;-68
2020/12/10 12:35:40;;;;;;;20.23;18.03;;;22.20;53.70;;;;;;5054197;28;20649;-68
2020/12/10 12:38:06;;;;;;;24.17;21.10;;;22.20;53.70;;;;;;5054170;28;20587;-67
2020/12/10 12:40:31;;;;;;;22.70;18.20;;;22.30;53.80;;;;;;5036171;28;20456;-67
2020/12/10 12:43:00;;;;;;;23.77;19.57;;;22.30;53.80;;;;;;5053981;28;20481;-68
2020/12/10 12:45:26;;;;;;;24.00;21.53;;;22.30;53.80;;;;;;5054233;28;20183;-67
2020/12/10 12:47:53;;;;;;;25.23;20.33;;;22.30;53.80;;;;;;5053935;28;20496;-68
2020/12/10 12:50:19;;;;;;;26.03;20.57;;;22.30;53.80;;;;;;5036009;28;20405;-67
2020/12/10 12:52:44;;;;;;;24.73;22.13;;;22.30;54.30;;;;;;5035667;28;20444;-68